createdAt,value
2018-11-23T13:32:15.277Z,4.533081
2018-11-23T14:28:24.271Z,4.120178
2018-11-23T16:38:55.610Z,3.435364
2018-11-23T16:44:26.909Z,3.435364
2018-11-23T16:48:13.248Z,3.455505
2018-11-23T16:51:43.107Z,3.455505
2018-11-23T16:55:13.085Z,3.475647
2018-11-23T16:58:43.924Z,3.455505
2018-11-23T17:02:13.795Z,3.475647
2018-11-23T17:05:43.659Z,3.455505
2018-11-23T17:09:13.497Z,3.485718
2018-11-23T17:12:43.371Z,3.475647
2018-11-23T17:16:13.252Z,3.485718
2018-11-23T17:19:43.098Z,3.505859
2018-11-23T17:23:13.963Z,3.505859
2018-11-23T17:26:43.818Z,3.51593
2018-11-23T17:30:13.669Z,3.505859
2018-11-23T17:33:43.535Z,3.536072
2018-11-23T17:37:13.442Z,3.536072
2018-11-23T17:40:43.320Z,3.51593
2018-11-23T17:44:13.202Z,3.536072
2018-11-23T17:47:43.047Z,3.546143
2018-11-23T17:51:12.900Z,3.51593
2018-11-23T17:54:42.738Z,3.536072
2018-11-23T17:58:12.585Z,3.546143
2018-11-23T18:01:42.449Z,3.556213
2018-11-23T18:05:12.313Z,3.536072
2018-11-23T18:08:42.160Z,3.546143
2018-11-23T18:12:12.012Z,3.556213
2018-11-23T18:15:41.871Z,3.556213
2018-11-23T18:19:11.698Z,3.586426
2018-11-23T18:22:41.543Z,3.586426
2018-11-23T18:26:11.395Z,3.596497
2018-11-23T18:29:41.225Z,3.596497
2018-11-23T18:33:11.074Z,3.616638
2018-11-23T18:36:40.926Z,3.616638
2018-11-23T18:40:10.763Z,3.616638
2018-11-23T18:43:40.607Z,3.626709
2018-11-23T18:47:10.589Z,3.626709
2018-11-23T18:50:40.474Z,3.626709
2018-11-23T18:54:10.311Z,3.63678
2018-11-23T18:57:40.157Z,3.626709
2018-11-23T19:01:10.010Z,3.656921
2018-11-23T19:04:40.841Z,3.63678
2018-11-23T19:08:10.700Z,3.656921
2018-11-23T19:11:40.584Z,3.656921
2018-11-23T19:15:10.483Z,3.656921
2018-11-23T19:18:41.303Z,3.656921
2018-11-23T19:22:11.157Z,3.666992
2018-11-23T19:25:41.015Z,3.656921
2018-11-23T19:29:10.861Z,3.666992
2018-11-23T19:32:40.700Z,3.666992
2018-11-23T19:36:10.572Z,3.666992
2018-11-23T19:39:40.407Z,3.656921
2018-11-23T19:43:10.267Z,3.666992
2018-11-23T19:46:40.123Z,3.687134
2018-11-23T19:50:09.964Z,3.666992
2018-11-23T19:53:39.830Z,3.666992
2018-11-23T19:57:10.678Z,3.666992
2018-11-23T20:00:40.568Z,3.687134
2018-11-23T20:04:10.417Z,3.697205
2018-11-23T20:07:40.385Z,3.697205
2018-11-23T20:11:10.256Z,3.717346
2018-11-23T20:14:40.093Z,3.697205
2018-11-23T20:18:09.967Z,3.717346
2018-11-23T20:21:40.518Z,3.697205
2018-11-23T20:25:12.139Z,3.717346
2018-11-23T20:28:42.012Z,3.727417
2018-11-23T20:32:11.895Z,3.727417
2018-11-23T20:35:41.808Z,3.727417
2018-11-23T20:39:11.697Z,3.757629
2018-11-23T20:42:41.548Z,3.757629
2018-11-23T20:46:11.403Z,3.777771
2018-11-23T20:49:45.659Z,3.757629
2018-11-23T20:53:14.054Z,3.777771
2018-11-23T20:56:43.898Z,3.807983
2018-11-23T21:00:13.738Z,3.777771
2018-11-23T21:03:43.657Z,3.797913
2018-11-23T21:07:13.510Z,3.797913
2018-11-23T21:10:43.368Z,3.807983
2018-11-23T21:14:13.216Z,3.818054
2018-11-23T21:17:43.080Z,3.797913
2018-11-23T21:21:12.927Z,3.807983
2018-11-23T21:24:42.763Z,3.818054
2018-11-23T21:28:12.613Z,3.818054
2018-11-23T21:31:42.473Z,3.838196
2018-11-23T21:35:12.314Z,3.818054
2018-11-23T21:38:42.176Z,3.838196
2018-11-23T21:42:12.033Z,3.838196
2018-11-23T21:45:41.895Z,3.838196
2018-11-23T21:49:11.727Z,3.848267
2018-11-23T21:52:41.582Z,3.848267
2018-11-23T21:56:11.428Z,3.868408
2018-11-23T21:59:41.267Z,3.868408
2018-11-23T22:03:11.113Z,3.868408
2018-11-23T22:06:40.966Z,3.878479
2018-11-23T22:10:10.789Z,3.868408
2018-11-23T22:13:40.633Z,3.898621
2018-11-23T22:17:10.493Z,3.898621
2018-11-23T22:20:40.349Z,3.898621
2018-11-23T22:24:10.201Z,3.908691
2018-11-23T22:27:40.056Z,3.898621
2018-11-23T22:31:10.900Z,3.908691
2018-11-23T22:34:40.806Z,3.908691
2018-11-23T22:38:11.632Z,3.908691
2018-11-23T22:41:41.481Z,3.908691
2018-11-23T22:45:11.333Z,3.918762
2018-11-23T22:48:41.168Z,3.918762
2018-11-23T22:52:11.023Z,3.918762
2018-11-23T22:55:40.889Z,3.938904
2018-11-23T22:59:10.726Z,3.959045
2018-11-23T23:02:40.572Z,3.938904
2018-11-23T23:06:10.426Z,3.938904
2018-11-23T23:09:40.287Z,3.938904
2018-11-23T23:13:10.124Z,3.938904
2018-11-23T23:16:39.976Z,3.979187
2018-11-23T23:20:09.823Z,3.959045
2018-11-23T23:23:39.786Z,3.959045
2018-11-23T23:27:09.644Z,3.959045
2018-11-23T23:30:39.498Z,3.959045
2018-11-23T23:34:10.332Z,3.979187
2018-11-23T23:37:40.186Z,3.989258
2018-11-23T23:41:10.030Z,3.979187
2018-11-23T23:44:39.869Z,3.989258
2018-11-23T23:48:09.717Z,3.989258
2018-11-23T23:51:39.573Z,3.989258
2018-11-23T23:55:09.411Z,3.999329
2018-11-23T23:58:39.284Z,4.01947
